createdAt,value
2018-09-23T00:01:54.097Z,15.30
2018-09-23T00:04:22.960Z,15.30
2018-09-23T00:06:51.701Z,15.40
2018-09-23T00:09:20.431Z,15.40
2018-09-23T00:11:49.120Z,15.40
2018-09-23T00:14:17.831Z,15.40
2018-09-23T00:16:46.508Z,15.40
2018-09-23T00:19:15.282Z,15.50
2018-09-23T00:21:44.023Z,15.50
2018-09-23T00:24:12.760Z,15.40
2018-09-23T00:26:41.572Z,15.50
2018-09-23T00:29:10.279Z,15.50
2018-09-23T00:31:38.967Z,15.60
2018-09-23T00:34:07.818Z,15.60
2018-09-23T00:36:36.531Z,15.60
2018-09-23T00:39:05.994Z,15.60
2018-09-23T00:41:34.787Z,15.70
2018-09-23T00:44:03.504Z,15.70
2018-09-23T00:46:32.166Z,15.70
2018-09-23T00:49:00.879Z,15.60
2018-09-23T00:51:29.596Z,15.60
2018-09-23T00:53:58.407Z,15.60
2018-09-23T00:56:27.295Z,15.60
2018-09-23T00:58:56.092Z,15.70
2018-09-23T01:01:24.798Z,15.70
2018-09-23T01:03:53.490Z,15.60
2018-09-23T01:06:22.150Z,15.70
2018-09-23T01:08:50.824Z,15.70
2018-09-23T01:11:19.541Z,15.60
2018-09-23T01:13:48.255Z,15.70
2018-09-23T01:16:16.988Z,15.60
2018-09-23T01:18:45.724Z,15.60
2018-09-23T01:21:14.475Z,15.50
2018-09-23T01:23:43.144Z,15.40
2018-09-23T01:26:11.923Z,15.50
2018-09-23T01:28:40.643Z,15.50
2018-09-23T01:31:09.316Z,15.50
2018-09-23T01:33:38.036Z,15.50
2018-09-23T01:36:06.845Z,15.50
2018-09-23T01:38:35.589Z,15.50
2018-09-23T01:41:04.340Z,15.40
2018-09-23T01:43:33.084Z,15.40
2018-09-23T01:46:01.884Z,15.50
2018-09-23T01:48:30.667Z,15.50
2018-09-23T01:50:59.360Z,15.50
2018-09-23T01:53:28.091Z,15.50
2018-09-23T01:55:56.823Z,15.60
2018-09-23T01:58:25.485Z,15.50
2018-09-23T02:00:54.212Z,15.40
2018-09-23T02:03:22.880Z,15.40
2018-09-23T02:05:51.543Z,15.50
2018-09-23T02:08:20.248Z,15.40
2018-09-23T02:10:48.915Z,15.40
2018-09-23T02:13:17.721Z,15.40
2018-09-23T02:15:46.473Z,15.40
2018-09-23T02:18:15.219Z,15.30
2018-09-23T02:20:43.875Z,15.30
2018-09-23T02:23:12.723Z,15.40
2018-09-23T02:25:41.511Z,15.40
2018-09-23T02:28:10.207Z,15.30
2018-09-23T02:30:38.947Z,15.40
2018-09-23T02:33:07.734Z,15.40
2018-09-23T02:35:36.395Z,15.50
2018-09-23T02:38:05.191Z,15.50
2018-09-23T02:40:33.867Z,15.50
2018-09-23T02:43:02.561Z,15.50
2018-09-23T02:45:31.352Z,15.50
2018-09-23T02:48:00.052Z,15.50
2018-09-23T02:50:28.892Z,15.50
2018-09-23T02:52:57.599Z,15.50
2018-09-23T02:55:26.292Z,15.50
2018-09-23T02:57:55.052Z,15.50
2018-09-23T03:00:23.755Z,15.50
2018-09-23T03:02:52.488Z,15.50
2018-09-23T03:05:21.320Z,15.50
2018-09-23T03:07:50.104Z,15.50
2018-09-23T03:10:18.827Z,15.50
2018-09-23T03:12:47.666Z,15.60
2018-09-23T03:15:16.392Z,15.60
2018-09-23T03:17:45.180Z,15.60
2018-09-23T03:20:13.987Z,15.70
2018-09-23T03:22:42.699Z,15.70
2018-09-23T03:25:11.444Z,15.70
2018-09-23T03:27:40.215Z,15.70
2018-09-23T03:30:08.948Z,15.70
2018-09-23T03:32:37.723Z,15.70
2018-09-23T03:35:06.483Z,15.60
2018-09-23T03:37:35.242Z,15.50
2018-09-23T03:40:04.055Z,15.50
2018-09-23T03:42:32.844Z,15.50
2018-09-23T03:45:01.557Z,15.50
2018-09-23T03:47:30.323Z,15.50
2018-09-23T03:49:59.127Z,15.40
2018-09-23T03:52:27.889Z,15.50
2018-09-23T03:54:56.648Z,15.50
2018-09-23T03:57:25.326Z,15.50
2018-09-23T03:59:54.061Z,15.50
2018-09-23T04:02:22.872Z,15.60
2018-09-23T04:04:51.646Z,15.60
2018-09-23T04:07:20.372Z,15.60
2018-09-23T04:09:49.098Z,15.50
2018-09-23T04:12:17.840Z,15.60
2018-09-23T04:14:46.614Z,15.60
2018-09-23T04:17:15.348Z,15.60
2018-09-23T04:19:44.087Z,15.70
2018-09-23T04:22:12.881Z,15.70
2018-09-23T04:24:41.643Z,15.80
2018-09-23T04:27:10.296Z,15.80
2018-09-23T04:29:38.988Z,15.80
2018-09-23T04:32:07.652Z,15.80
2018-09-23T04:34:36.412Z,15.80
2018-09-23T04:37:05.135Z,15.80
2018-09-23T04:39:33.928Z,15.80
2018-09-23T04:42:02.684Z,15.80
2018-09-23T04:44:31.455Z,15.80
2018-09-23T04:47:00.111Z,15.70
2018-09-23T04:49:28.844Z,15.70
2018-09-23T04:51:57.551Z,15.70
2018-09-23T04:54:35.970Z,15.60
2018-09-23T04:57:04.928Z,15.60
2018-09-23T04:59:33.743Z,15.60
2018-09-23T05:02:02.443Z,15.60
2018-09-23T05:04:31.256Z,15.60
2018-09-23T05:06:59.917Z,15.60
2018-09-23T05:09:28.612Z,15.50
2018-09-23T05:11:57.296Z,15.50
2018-09-23T05:14:25.991Z,15.50
2018-09-23T05:16:54.724Z,15.50
2018-09-23T05:19:23.503Z,15.60
2018-09-23T05:21:52.220Z,15.60
2018-09-23T05:24:20.979Z,15.60
2018-09-23T05:26:49.707Z,15.60
2018-09-23T05:29:18.400Z,15.60
2018-09-23T05:31:47.155Z,15.60
2018-09-23T05:34:16.159Z,15.60
2018-09-23T05:36:44.868Z,15.60
2018-09-23T05:39:13.631Z,15.70
2018-09-23T05:41:42.348Z,15.80
2018-09-23T05:44:11.099Z,15.80
2018-09-23T05:46:40.202Z,15.80
2018-09-23T05:49:09.306Z,15.90
2018-09-23T05:51:38.084Z,15.90
2018-09-23T05:54:06.782Z,16.00
2018-09-23T05:56:35.555Z,16.00
2018-09-23T05:59:04.195Z,16.00
2018-09-23T06:01:32.931Z,16.10
2018-09-23T06:04:01.624Z,16.10
2018-09-23T06:06:30.354Z,16.10
2018-09-23T06:08:59.128Z,16.10
2018-09-23T06:11:27.875Z,16.00
2018-09-23T06:13:56.579Z,16.10
2018-09-23T06:16:25.266Z,16.10
2018-09-23T06:18:53.975Z,16.10
2018-09-23T06:21:22.720Z,16.10
2018-09-23T06:23:51.455Z,16.20
2018-09-23T06:26:20.175Z,16.30
2018-09-23T06:28:48.888Z,16.40
2018-09-23T06:31:17.631Z,16.50
2018-09-23T06:33:46.371Z,16.50
2018-09-23T06:36:15.103Z,16.60
2018-09-23T06:38:43.943Z,16.60
2018-09-23T06:41:12.620Z,16.60
2018-09-23T06:43:41.343Z,16.50
2018-09-23T06:46:10.150Z,16.40
2018-09-23T06:48:38.879Z,16.40
2018-09-23T06:51:07.696Z,16.30
2018-09-23T06:53:37.186Z,16.30
2018-09-23T06:56:05.987Z,16.30
2018-09-23T06:58:34.918Z,16.30
2018-09-23T07:01:03.606Z,16.30
2018-09-23T07:03:32.382Z,16.30
2018-09-23T07:06:01.188Z,16.30
2018-09-23T07:08:29.880Z,16.30
2018-09-23T07:10:58.671Z,16.40
2018-09-23T07:13:27.416Z,16.40
2018-09-23T07:15:56.151Z,16.40
2018-09-23T07:18:24.842Z,16.40
2018-09-23T07:20:53.614Z,16.40
2018-09-23T07:23:22.316Z,16.50
2018-09-23T07:25:51.068Z,16.50
2018-09-23T07:28:19.760Z,16.50
2018-09-23T07:30:48.503Z,16.50
2018-09-23T07:33:17.275Z,16.60
2018-09-23T07:35:46.502Z,16.60
2018-09-23T07:38:15.312Z,16.60
2018-09-23T07:40:44.098Z,16.70
2018-09-23T07:43:12.881Z,16.80
2018-09-23T07:45:42.118Z,16.80
2018-09-23T07:48:10.872Z,16.80
2018-09-23T07:50:39.698Z,16.90
2018-09-23T07:53:08.856Z,17.00
2018-09-23T07:55:37.676Z,17.10
2018-09-23T07:58:06.591Z,17.20
2018-09-23T08:00:35.750Z,17.30
2018-09-23T08:03:04.556Z,17.30
2018-09-23T08:05:33.267Z,17.30
2018-09-23T08:08:02.044Z,17.40
2018-09-23T08:10:31.145Z,17.50
2018-09-23T08:13:00.172Z,17.70
2018-09-23T08:15:28.907Z,17.80
2018-09-23T08:17:57.655Z,18.10
2018-09-23T08:20:26.545Z,18.30
2018-09-23T08:22:55.504Z,18.60
2018-09-23T08:25:24.357Z,18.90
2018-09-23T08:27:53.270Z,19.10
2018-09-23T08:30:22.135Z,19.30
2018-09-23T08:32:50.947Z,19.60
2018-09-23T08:35:19.679Z,19.80
2018-09-23T08:37:48.517Z,19.90
2018-09-23T08:40:17.412Z,20.10
2018-09-23T08:42:46.286Z,20.30
2018-09-23T08:45:15.083Z,20.50
2018-09-23T08:47:43.775Z,20.70
2018-09-23T08:50:12.607Z,20.90
2018-09-23T08:52:41.361Z,21.10
2018-09-23T08:55:11.218Z,21.10
2018-09-23T08:57:40.128Z,21.30
2018-09-23T09:00:08.907Z,21.60
2018-09-23T09:02:38.138Z,21.80
2018-09-23T09:05:07.173Z,22.00
2018-09-23T09:07:36.400Z,22.10
2018-09-23T09:10:05.308Z,22.20
2018-09-23T09:12:34.325Z,22.40
2018-09-23T09:15:03.208Z,22.70
2018-09-23T09:17:31.953Z,22.70
2018-09-23T09:20:00.870Z,22.90
2018-09-23T09:22:29.616Z,23.40
2018-09-23T09:24:58.697Z,23.40
2018-09-23T09:27:27.411Z,23.50
2018-09-23T09:29:56.318Z,23.60
2018-09-23T09:32:25.277Z,23.80
2018-09-23T09:34:54.098Z,24.00
2018-09-23T09:37:22.908Z,24.20
2018-09-23T09:39:51.717Z,24.40
2018-09-23T09:42:20.597Z,24.50
2018-09-23T09:44:49.369Z,24.40
2018-09-23T09:47:18.307Z,24.10
2018-09-23T09:49:47.296Z,24.20
2018-09-23T09:52:16.345Z,24.30
2018-09-23T09:54:45.132Z,24.30
2018-09-23T09:57:13.940Z,24.40
2018-09-23T09:59:42.848Z,24.50
2018-09-23T10:02:11.860Z,24.30
2018-09-23T10:04:40.736Z,24.40
2018-09-23T10:07:09.621Z,24.50
2018-09-23T10:09:38.481Z,24.50
2018-09-23T10:12:07.356Z,24.40
2018-09-23T10:14:36.165Z,24.40
2018-09-23T10:17:05.015Z,24.70
2018-09-23T10:19:33.803Z,24.90
2018-09-23T10:22:02.508Z,25.00
2018-09-23T10:24:31.627Z,25.10
2018-09-23T10:27:00.556Z,25.30
2018-09-23T10:29:29.339Z,25.30
2018-09-23T10:31:58.172Z,25.20
2018-09-23T10:34:26.956Z,25.30
2018-09-23T10:36:55.723Z,25.30
2018-09-23T10:39:24.503Z,25.30
2018-09-23T10:41:53.344Z,25.30
2018-09-23T10:44:31.612Z,25.50
2018-09-23T10:47:00.426Z,25.60
2018-09-23T10:49:29.306Z,25.80
2018-09-23T10:51:58.065Z,25.80
2018-09-23T10:54:26.916Z,25.80
2018-09-23T10:56:55.856Z,25.70
2018-09-23T10:59:24.651Z,25.60
2018-09-23T11:01:53.656Z,25.40
2018-09-23T11:04:22.529Z,25.30
2018-09-23T11:06:51.345Z,25.30
2018-09-23T11:09:20.224Z,25.40
2018-09-23T11:11:49.090Z,25.40
2018-09-23T11:14:22.989Z,25.40
2018-09-23T11:16:51.852Z,25.60
2018-09-23T11:19:21.608Z,25.70
2018-09-23T11:21:50.402Z,25.60
2018-09-23T11:24:20.279Z,25.80
2018-09-23T11:26:49.476Z,26.00
2018-09-23T11:29:18.406Z,26.10
2018-09-23T11:31:47.368Z,26.10
2018-09-23T11:34:16.223Z,26.30
2018-09-23T11:36:44.971Z,26.40
2018-09-23T11:39:13.762Z,26.30
2018-09-23T11:41:42.629Z,26.40
2018-09-23T11:44:11.372Z,26.30
2018-09-23T11:46:40.136Z,26.10
2018-09-23T11:49:08.872Z,26.00
2018-09-23T11:51:37.588Z,25.90
2018-09-23T11:54:06.363Z,26.00
2018-09-23T11:56:35.621Z,26.00
2018-09-23T11:59:04.491Z,26.10
2018-09-23T12:01:33.239Z,26.30
2018-09-23T12:04:02.141Z,26.40
2018-09-23T12:06:30.937Z,26.40
2018-09-23T12:09:00.755Z,26.30
2018-09-23T12:11:29.551Z,26.20
2018-09-23T12:13:58.572Z,26.10
2018-09-23T12:16:27.597Z,26.10
2018-09-23T12:18:56.372Z,25.90
2018-09-23T12:21:25.212Z,25.70
2018-09-23T12:23:53.903Z,25.60
2018-09-23T12:26:22.657Z,25.60
2018-09-23T12:28:51.800Z,25.70
2018-09-23T12:31:20.615Z,25.80
2018-09-23T12:33:49.765Z,25.80
2018-09-23T12:36:18.452Z,25.80
2018-09-23T12:38:47.317Z,25.70
2018-09-23T12:41:16.107Z,25.60
2018-09-23T12:43:45.394Z,25.60
2018-09-23T12:46:14.287Z,25.60
2018-09-23T12:48:42.806Z,25.60
2018-09-23T12:51:11.559Z,25.60
2018-09-23T12:53:40.824Z,25.60
2018-09-23T12:56:09.523Z,25.70
2018-09-23T12:58:38.220Z,25.90
2018-09-23T13:01:07.381Z,25.90
2018-09-23T13:03:36.118Z,25.90
2018-09-23T13:06:04.959Z,25.90
2018-09-23T13:08:33.648Z,26.10
2018-09-23T13:11:02.528Z,26.10
2018-09-23T13:13:31.312Z,26.20
2018-09-23T13:16:00.179Z,26.50
2018-09-23T13:18:29.068Z,26.60
2018-09-23T13:20:57.808Z,26.70
2018-09-23T13:26:19.610Z,27.00
2018-09-23T13:28:48.436Z,27.10
2018-09-23T13:31:18.305Z,27.30
2018-09-23T13:36:41.217Z,27.30
2018-09-23T13:39:10.153Z,27.30
2018-09-23T13:41:45.244Z,27.50
2018-09-23T13:44:14.403Z,27.70
2018-09-23T13:46:47.052Z,28.00
2018-09-23T13:49:17.147Z,28.10
2018-09-23T13:51:46.264Z,28.00
2018-09-23T13:54:29.475Z,28.00
2018-09-23T13:56:58.753Z,28.10
2018-09-23T13:59:29.085Z,28.00
2018-09-23T14:01:59.060Z,27.80
2018-09-23T14:04:28.017Z,27.60
2018-09-23T14:07:06.663Z,27.40
2018-09-23T14:09:35.605Z,27.00
2018-09-23T14:12:06.146Z,26.80
2018-09-23T14:14:35.767Z,26.80
2018-09-23T14:17:05.259Z,26.70
2018-09-23T14:19:42.339Z,26.60
2018-09-23T14:22:11.210Z,26.50
2018-09-23T14:24:40.079Z,26.50
2018-09-23T14:27:08.892Z,26.50
2018-09-23T14:29:37.634Z,26.40
2018-09-23T14:32:06.346Z,26.30
2018-09-23T14:34:35.215Z,26.20
2018-09-23T14:37:04.040Z,26.10
2018-09-23T14:39:32.900Z,26.00
2018-09-23T14:42:01.733Z,25.90
2018-09-23T14:44:30.591Z,25.80
2018-09-23T14:46:59.422Z,25.70
2018-09-23T14:49:28.337Z,25.60
2018-09-23T14:51:57.044Z,25.50
2018-09-23T14:54:25.851Z,25.40
2018-09-23T14:56:54.448Z,25.40
2018-09-23T14:59:23.192Z,25.30
2018-09-23T15:01:52.024Z,25.20
2018-09-23T15:04:20.736Z,25.10
2018-09-23T15:06:49.614Z,25.10
2018-09-23T15:09:18.442Z,25.10
2018-09-23T15:11:47.232Z,24.90
2018-09-23T15:14:16.180Z,24.80
2018-09-23T15:16:44.953Z,24.80
2018-09-23T15:19:15.003Z,24.80
2018-09-23T15:21:44.118Z,24.80
2018-09-23T15:24:13.002Z,24.70
2018-09-23T15:26:41.799Z,24.70
2018-09-23T15:29:10.516Z,24.60
2018-09-23T15:31:39.247Z,24.50
2018-09-23T15:34:08.043Z,24.50
2018-09-23T15:36:37.892Z,24.40
2018-09-23T15:39:07.846Z,24.20
2018-09-23T15:41:36.952Z,24.10
2018-09-23T15:44:05.791Z,24.00
2018-09-23T15:46:34.559Z,23.80
2018-09-23T15:49:03.377Z,23.40
2018-09-23T15:51:32.133Z,23.30
2018-09-23T15:54:01.268Z,23.10
2018-09-23T15:56:30.082Z,23.00
2018-09-23T15:58:58.792Z,22.90
2018-09-23T16:01:27.599Z,22.70
2018-09-23T16:03:56.353Z,22.60
2018-09-23T16:06:25.223Z,22.70
2018-09-23T16:08:54.078Z,22.50
2018-09-23T16:11:22.919Z,22.40
2018-09-23T16:13:51.661Z,22.30
2018-09-23T16:16:20.487Z,22.30
2018-09-23T16:18:49.470Z,22.20
2018-09-23T16:21:18.122Z,22.20
2018-09-23T16:23:47.116Z,22.10
2018-09-23T16:26:15.864Z,22.10
2018-09-23T16:28:44.729Z,22.10
2018-09-23T16:31:13.548Z,22.10
2018-09-23T16:33:42.384Z,22.00
2018-09-23T16:36:11.273Z,21.90
2018-09-23T16:38:40.031Z,21.90
2018-09-23T16:41:08.767Z,21.80
2018-09-23T16:43:37.904Z,21.80
2018-09-23T16:46:07.253Z,21.90
2018-09-23T16:48:35.991Z,21.90
2018-09-23T16:51:05.079Z,21.90
2018-09-23T16:53:33.936Z,21.90
2018-09-23T16:56:02.784Z,21.90
2018-09-23T16:58:31.549Z,21.80
2018-09-23T17:01:00.474Z,21.80
2018-09-23T17:03:29.241Z,21.70
2018-09-23T17:05:58.140Z,21.70
2018-09-23T17:08:27.215Z,21.70
2018-09-23T17:10:56.276Z,21.80
2018-09-23T17:13:25.096Z,22.00
2018-09-23T17:15:53.996Z,22.00
2018-09-23T17:18:22.739Z,21.80
2018-09-23T17:20:51.532Z,21.80
2018-09-23T17:23:20.922Z,21.70
2018-09-23T17:25:49.891Z,21.60
2018-09-23T17:28:18.897Z,21.60
2018-09-23T17:30:47.616Z,21.60
2018-09-23T17:33:16.571Z,21.70
2018-09-23T17:35:45.292Z,21.80
2018-09-23T17:38:14.067Z,21.80
2018-09-23T17:40:42.880Z,21.70
2018-09-23T17:43:11.499Z,21.70
2018-09-23T17:45:40.312Z,21.60
2018-09-23T17:48:09.080Z,21.50
2018-09-23T17:50:37.863Z,21.40
2018-09-23T17:53:06.577Z,21.30
2018-09-23T17:55:35.336Z,21.30
2018-09-23T17:58:04.072Z,21.30
2018-09-23T18:00:32.769Z,21.20
2018-09-23T18:03:01.500Z,21.20
2018-09-23T18:05:30.188Z,21.10
2018-09-23T18:07:58.989Z,21.00
2018-09-23T18:10:27.724Z,20.90
2018-09-23T18:12:56.528Z,21.00
2018-09-23T18:15:25.258Z,21.00
2018-09-23T18:17:53.963Z,20.90
2018-09-23T18:20:23.070Z,20.80
2018-09-23T18:22:51.963Z,20.80
2018-09-23T18:25:20.793Z,20.60
2018-09-23T18:27:49.668Z,20.40
2018-09-23T18:30:18.454Z,20.30
2018-09-23T18:32:47.316Z,20.10
2018-09-23T18:35:16.073Z,20.10
2018-09-23T18:37:45.023Z,20.10
2018-09-23T18:40:13.855Z,20.20
2018-09-23T18:42:42.692Z,20.20
2018-09-23T18:45:11.460Z,20.10
2018-09-23T18:47:40.209Z,20.00
2018-09-23T18:50:08.989Z,20.00
2018-09-23T18:52:37.926Z,19.90
2018-09-23T18:55:12.329Z,19.90
2018-09-23T18:57:48.091Z,19.80
2018-09-23T19:00:16.906Z,19.70
2018-09-23T19:02:45.647Z,19.60
2018-09-23T19:05:14.453Z,19.60
2018-09-23T19:07:43.140Z,19.60
2018-09-23T19:10:11.898Z,19.60
2018-09-23T19:12:40.765Z,19.60
2018-09-23T19:15:09.620Z,19.60
2018-09-23T19:17:38.399Z,19.60
2018-09-23T19:20:10.352Z,19.60
2018-09-23T19:22:44.362Z,19.60
2018-09-23T19:25:13.160Z,19.60
2018-09-23T19:27:41.924Z,19.60
2018-09-23T19:30:10.644Z,19.60
2018-09-23T19:32:39.428Z,19.60
2018-09-23T19:35:08.104Z,19.70
2018-09-23T19:37:36.826Z,19.60
2018-09-23T19:40:05.609Z,19.60
2018-09-23T19:42:34.387Z,19.80
2018-09-23T19:45:03.083Z,19.80
2018-09-23T19:47:31.852Z,19.80
2018-09-23T19:50:00.575Z,19.70
2018-09-23T19:52:29.332Z,19.70
2018-09-23T19:54:58.074Z,19.60
2018-09-23T19:57:26.759Z,19.60
2018-09-23T19:59:55.475Z,19.50
2018-09-23T20:02:24.303Z,19.40
2018-09-23T20:04:53.771Z,19.40
2018-09-23T20:07:22.931Z,19.40
2018-09-23T20:09:51.748Z,19.40
2018-09-23T20:12:20.434Z,19.30
2018-09-23T20:14:49.433Z,19.30
2018-09-23T20:17:18.152Z,19.30
2018-09-23T20:19:46.949Z,19.30
2018-09-23T20:22:15.749Z,19.30
2018-09-23T20:24:44.536Z,19.20
2018-09-23T20:27:13.279Z,19.20
2018-09-23T20:29:42.149Z,19.20
2018-09-23T20:32:11.039Z,19.20
2018-09-23T20:34:39.811Z,19.20
2018-09-23T20:37:08.536Z,19.10
2018-09-23T20:39:37.422Z,19.10
2018-09-23T20:42:06.170Z,19.00
2018-09-23T20:44:34.933Z,18.60
2018-09-23T20:47:03.772Z,18.30
2018-09-23T20:49:32.606Z,17.80
2018-09-23T20:52:01.397Z,17.50
2018-09-23T20:54:30.183Z,17.30
2018-09-23T20:56:59.054Z,17.30
2018-09-23T20:59:27.835Z,17.20
2018-09-23T21:01:57.041Z,17.20
2018-09-23T21:04:31.119Z,17.10
2018-09-23T21:06:59.800Z,16.90
2018-09-23T21:09:28.533Z,16.70
2018-09-23T21:11:57.524Z,16.60
2018-09-23T21:14:26.296Z,16.60
2018-09-23T21:16:55.235Z,16.60
2018-09-23T21:19:24.031Z,16.50
2018-09-23T21:21:52.825Z,16.40
2018-09-23T21:24:21.796Z,16.30
2018-09-23T21:26:50.549Z,16.20
2018-09-23T21:29:19.481Z,16.10
2018-09-23T21:31:48.300Z,16.10
2018-09-23T21:34:17.082Z,16.10
2018-09-23T21:36:45.898Z,16.10
2018-09-23T21:39:14.704Z,16.10
2018-09-23T21:41:43.436Z,16.10
2018-09-23T21:44:12.320Z,16.10
2018-09-23T21:46:41.096Z,16.00
2018-09-23T21:49:09.791Z,15.90
2018-09-23T21:51:38.838Z,15.80
2018-09-23T21:54:07.615Z,15.70
2018-09-23T21:56:36.378Z,15.60
2018-09-23T21:59:05.167Z,15.50
2018-09-23T22:01:33.918Z,15.40
2018-09-23T22:04:02.848Z,15.30
2018-09-23T22:06:31.581Z,15.30
2018-09-23T22:09:00.403Z,15.20
2018-09-23T22:11:29.356Z,15.10
2018-09-23T22:13:58.186Z,15.10
2018-09-23T22:16:26.969Z,15.10
2018-09-23T22:18:55.844Z,15.00
2018-09-23T22:21:24.742Z,14.90
2018-09-23T22:23:53.516Z,14.90
2018-09-23T22:26:22.283Z,14.90
2018-09-23T22:28:51.095Z,14.80
2018-09-23T22:31:19.814Z,14.70
2018-09-23T22:33:48.540Z,14.70
2018-09-23T22:36:17.339Z,14.70
2018-09-23T22:38:46.140Z,14.70
2018-09-23T22:41:15.065Z,14.70
2018-09-23T22:43:43.748Z,14.60
2018-09-23T22:46:12.581Z,14.50
2018-09-23T22:48:41.396Z,14.50
2018-09-23T22:51:10.220Z,14.30
2018-09-23T22:53:38.987Z,14.30
2018-09-23T22:56:07.797Z,14.40
2018-09-23T22:58:36.539Z,14.40
2018-09-23T23:01:05.255Z,14.30
2018-09-23T23:03:34.139Z,14.30
2018-09-23T23:06:02.912Z,14.30
2018-09-23T23:08:31.762Z,14.40
2018-09-23T23:11:00.589Z,14.40
2018-09-23T23:13:29.356Z,14.40
2018-09-23T23:15:58.245Z,14.40
2018-09-23T23:18:26.968Z,14.50
2018-09-23T23:20:55.759Z,14.50
2018-09-23T23:23:24.534Z,14.50
2018-09-23T23:25:53.336Z,14.50
2018-09-23T23:28:22.335Z,14.50
2018-09-23T23:30:51.231Z,14.50
2018-09-23T23:33:19.917Z,14.20
2018-09-23T23:35:48.689Z,14.20
2018-09-23T23:38:17.351Z,14.00
2018-09-23T23:40:46.072Z,13.80
2018-09-23T23:43:15.145Z,13.60
2018-09-23T23:45:43.899Z,13.50
2018-09-23T23:48:12.647Z,13.30
2018-09-23T23:50:41.412Z,13.20
2018-09-23T23:53:10.271Z,13.10
2018-09-23T23:55:39.051Z,12.90
2018-09-23T23:58:07.851Z,12.90
